sensor_id;sensor_type;location;lat;lon;timestamp;P1;durP1;ratioP1;P2;durP2;ratioP2
22382;SDS011;11359;45.802;13.530;2023-04-21T00:00:56;0.70;;;0.60;;
22382;SDS011;11359;45.802;13.530;2023-04-21T00:03:24;0.63;;;0.60;;
22382;SDS011;11359;45.802;13.530;2023-04-21T00:05:51;0.50;;;0.50;;
22382;SDS011;11359;45.802;13.530;2023-04-21T00:08:20;0.50;;;0.50;;
22382;SDS011;11359;45.802;13.530;2023-04-21T00:10:46;0.40;;;0.40;;
22382;SDS011;11359;45.802;13.530;2023-04-21T00:13:12;0.50;;;0.50;;
22382;SDS011;11359;45.802;13.530;2023-04-21T00:15:38;0.52;;;0.50;;
22382;SDS011;11359;45.802;13.530;2023-04-21T00:18:03;0.50;;;0.50;;
22382;SDS011;11359;45.802;13.530;2023-04-21T00:20:30;0.60;;;0.40;;
22382;SDS011;11359;45.802;13.530;2023-04-21T00:22:57;0.50;;;0.50;;
22382;SDS011;11359;45.802;13.530;2023-04-21T00:25:23;0.50;;;0.50;;
22382;SDS011;11359;45.802;13.530;2023-04-21T00:27:50;1.13;;;0.80;;
22382;SDS011;11359;45.802;13.530;2023-04-21T00:30:16;1.77;;;1.58;;
22382;SDS011;11359;45.802;13.530;2023-04-21T00:32:42;3.25;;;2.38;;
22382;SDS011;11359;45.802;13.530;2023-04-21T00:35:08;3.08;;;2.50;;
22382;SDS011;11359;45.802;13.530;2023-04-21T00:37:34;2.42;;;2.00;;
22382;SDS011;11359;45.802;13.530;2023-04-21T00:40:00;1.80;;;1.70;;
22382;SDS011;11359;45.802;13.530;2023-04-21T00:42:26;1.60;;;1.50;;
22382;SDS011;11359;45.802;13.530;2023-04-21T00:44:52;1.60;;;1.50;;
22382;SDS011;11359;45.802;13.530;2023-04-21T00:47:18;1.38;;;1.27;;
22382;SDS011;11359;45.802;13.530;2023-04-21T00:49:44;1.17;;;1.08;;
22382;SDS011;11359;45.802;13.530;2023-04-21T00:52:10;1.45;;;1.05;;
22382;SDS011;11359;45.802;13.530;2023-04-21T00:54:36;1.00;;;0.90;;
22382;SDS011;11359;45.802;13.530;2023-04-21T00:57:02;1.23;;;1.13;;
22382;SDS011;11359;45.802;13.530;2023-04-21T00:59:29;1.30;;;1.10;;
22382;SDS011;11359;45.802;13.530;2023-04-21T01:01:55;1.40;;;1.27;;
22382;SDS011;11359;45.802;13.530;2023-04-21T01:04:22;1.13;;;0.90;;
22382;SDS011;11359;45.802;13.530;2023-04-21T01:06:48;1.23;;;1.08;;
22382;SDS011;11359;45.802;13.530;2023-04-21T01:09:14;1.08;;;0.98;;
22382;SDS011;11359;45.802;13.530;2023-04-21T01:11:39;0.77;;;0.77;;
22382;SDS011;11359;45.802;13.530;2023-04-21T01:14:05;0.90;;;0.75;;
22382;SDS011;11359;45.802;13.530;2023-04-21T01:16:31;0.77;;;0.77;;
22382;SDS011;11359;45.802;13.530;2023-04-21T01:18:58;0.60;;;0.60;;
22382;SDS011;11359;45.802;13.530;2023-04-21T01:21:25;0.60;;;0.60;;
22382;SDS011;11359;45.802;13.530;2023-04-21T01:23:53;0.77;;;0.70;;
22382;SDS011;11359;45.802;13.530;2023-04-21T01:26:19;0.80;;;0.60;;
22382;SDS011;11359;45.802;13.530;2023-04-21T01:28:46;0.63;;;0.60;;
22382;SDS011;11359;45.802;13.530;2023-04-21T01:31:13;0.77;;;0.70;;
22382;SDS011;11359;45.802;13.530;2023-04-21T01:33:40;0.50;;;0.50;;
22382;SDS011;11359;45.802;13.530;2023-04-21T01:36:06;0.63;;;0.50;;
22382;SDS011;11359;45.802;13.530;2023-04-21T01:38:36;0.50;;;0.50;;
22382;SDS011;11359;45.802;13.530;2023-04-21T01:41:03;0.68;;;0.50;;
22382;SDS011;11359;45.802;13.530;2023-04-21T01:43:30;0.50;;;0.50;;
22382;SDS011;11359;45.802;13.530;2023-04-21T01:45:56;0.50;;;0.40;;
22382;SDS011;11359;45.802;13.530;2023-04-21T01:48:22;0.60;;;0.60;;
22382;SDS011;11359;45.802;13.530;2023-04-21T01:50:47;0.47;;;0.47;;
22382;SDS011;11359;45.802;13.530;2023-04-21T01:53:13;0.40;;;0.40;;
22382;SDS011;11359;45.802;13.530;2023-04-21T01:55:39;0.40;;;0.40;;
22382;SDS011;11359;45.802;13.530;2023-04-21T01:58:05;0.50;;;0.50;;
22382;SDS011;11359;45.802;13.530;2023-04-21T02:00:33;0.50;;;0.50;;
22382;SDS011;11359;45.802;13.530;2023-04-21T02:03:00;0.60;;;0.50;;
22382;SDS011;11359;45.802;13.530;2023-04-21T02:05:25;0.60;;;0.47;;
22382;SDS011;11359;45.802;13.530;2023-04-21T02:07:51;0.38;;;0.38;;
22382;SDS011;11359;45.802;13.530;2023-04-21T02:10:17;0.43;;;0.43;;
22382;SDS011;11359;45.802;13.530;2023-04-21T02:12:43;0.60;;;0.50;;
22382;SDS011;11359;45.802;13.530;2023-04-21T02:15:09;0.50;;;0.50;;
22382;SDS011;11359;45.802;13.530;2023-04-21T02:17:35;0.40;;;0.40;;
22382;SDS011;11359;45.802;13.530;2023-04-21T02:20:01;0.40;;;0.40;;
22382;SDS011;11359;45.802;13.530;2023-04-21T02:22:27;0.60;;;0.60;;
22382;SDS011;11359;45.802;13.530;2023-04-21T02:24:54;0.80;;;0.65;;
22382;SDS011;11359;45.802;13.530;2023-04-21T02:27:20;0.60;;;0.60;;
22382;SDS011;11359;45.802;13.530;2023-04-21T02:29:46;0.73;;;0.65;;
22382;SDS011;11359;45.802;13.530;2023-04-21T02:32:12;0.70;;;0.68;;
22382;SDS011;11359;45.802;13.530;2023-04-21T02:34:38;0.70;;;0.60;;
22382;SDS011;11359;45.802;13.530;2023-04-21T02:37:03;0.65;;;0.60;;
22382;SDS011;11359;45.802;13.530;2023-04-21T02:39:30;0.65;;;0.65;;
22382;SDS011;11359;45.802;13.530;2023-04-21T02:41:55;0.68;;;0.60;;
22382;SDS011;11359;45.802;13.530;2023-04-21T02:44:22;0.60;;;0.60;;
22382;SDS011;11359;45.802;13.530;2023-04-21T02:46:48;0.68;;;0.68;;
22382;SDS011;11359;45.802;13.530;2023-04-21T02:49:13;0.95;;;0.80;;
22382;SDS011;11359;45.802;13.530;2023-04-21T02:51:39;1.13;;;0.90;;
22382;SDS011;11359;45.802;13.530;2023-04-21T02:54:05;0.80;;;0.70;;
22382;SDS011;11359;45.802;13.530;2023-04-21T02:56:31;0.90;;;0.80;;
22382;SDS011;11359;45.802;13.530;2023-04-21T02:58:59;0.65;;;0.65;;
22382;SDS011;11359;45.802;13.530;2023-04-21T03:01:25;0.80;;;0.75;;
22382;SDS011;11359;45.802;13.530;2023-04-21T03:03:50;0.70;;;0.70;;
22382;SDS011;11359;45.802;13.530;2023-04-21T03:06:16;0.82;;;0.80;;
22382;SDS011;11359;45.802;13.530;2023-04-21T03:08:42;0.70;;;0.63;;
22382;SDS011;11359;45.802;13.530;2023-04-21T03:11:08;0.60;;;0.60;;
22382;SDS011;11359;45.802;13.530;2023-04-21T03:13:34;0.80;;;0.70;;
22382;SDS011;11359;45.802;13.530;2023-04-21T03:16:00;1.30;;;0.98;;
22382;SDS011;11359;45.802;13.530;2023-04-21T03:18:25;1.35;;;0.95;;
22382;SDS011;11359;45.802;13.530;2023-04-21T03:20:52;0.75;;;0.73;;
22382;SDS011;11359;45.802;13.530;2023-04-21T03:23:23;0.80;;;0.60;;
22382;SDS011;11359;45.802;13.530;2023-04-21T03:25:49;0.60;;;0.60;;
22382;SDS011;11359;45.802;13.530;2023-04-21T03:28:15;0.90;;;0.80;;
22382;SDS011;11359;45.802;13.530;2023-04-21T03:30:40;0.75;;;0.75;;
22382;SDS011;11359;45.802;13.530;2023-04-21T03:33:06;0.80;;;0.70;;
22382;SDS011;11359;45.802;13.530;2023-04-21T03:35:32;0.88;;;0.80;;
22382;SDS011;11359;45.802;13.530;2023-04-21T03:37:58;0.85;;;0.82;;
22382;SDS011;11359;45.802;13.530;2023-04-21T03:40:24;1.02;;;0.93;;
22382;SDS011;11359;45.802;13.530;2023-04-21T03:42:49;0.95;;;0.77;;
22382;SDS011;11359;45.802;13.530;2023-04-21T03:45:15;0.60;;;0.60;;
22382;SDS011;11359;45.802;13.530;2023-04-21T03:47:43;0.60;;;0.60;;
22382;SDS011;11359;45.802;13.530;2023-04-21T03:50:09;0.70;;;0.65;;
22382;SDS011;11359;45.802;13.530;2023-04-21T03:52:34;0.95;;;0.80;;
22382;SDS011;11359;45.802;13.530;2023-04-21T03:55:00;1.05;;;0.70;;
22382;SDS011;11359;45.802;13.530;2023-04-21T03:57:26;0.70;;;0.70;;
22382;SDS011;11359;45.802;13.530;2023-04-21T03:59:51;0.82;;;0.70;;
22382;SDS011;11359;45.802;13.530;2023-04-21T04:02:17;0.90;;;0.70;;
22382;SDS011;11359;45.802;13.530;2023-04-21T04:04:43;0.65;;;0.65;;
22382;SDS011;11359;45.802;13.530;2023-04-21T04:07:09;0.57;;;0.57;;
22382;SDS011;11359;45.802;13.530;2023-04-21T04:09:35;0.60;;;0.50;;
22382;SDS011;11359;45.802;13.530;2023-04-21T04:12:01;0.52;;;0.50;;
22382;SDS011;11359;45.802;13.530;2023-04-21T04:14:30;0.65;;;0.50;;
22382;SDS011;11359;45.802;13.530;2023-04-21T04:16:57;0.55;;;0.55;;
22382;SDS011;11359;45.802;13.530;2023-04-21T04:19:28;0.70;;;0.60;;
22382;SDS011;11359;45.802;13.530;2023-04-21T04:21:57;0.57;;;0.57;;
22382;SDS011;11359;45.802;13.530;2023-04-21T04:24:28;0.40;;;0.40;;
22382;SDS011;11359;45.802;13.530;2023-04-21T04:26:58;0.50;;;0.50;;
22382;SDS011;11359;45.802;13.530;2023-04-21T04:29:26;0.63;;;0.60;;
22382;SDS011;11359;45.802;13.530;2023-04-21T04:31:51;0.40;;;0.40;;
22382;SDS011;11359;45.802;13.530;2023-04-21T04:34:17;0.52;;;0.52;;
22382;SDS011;11359;45.802;13.530;2023-04-21T04:36:43;0.50;;;0.50;;
22382;SDS011;11359;45.802;13.530;2023-04-21T04:39:09;0.40;;;0.40;;
22382;SDS011;11359;45.802;13.530;2023-04-21T04:41:36;0.45;;;0.45;;
22382;SDS011;11359;45.802;13.530;2023-04-21T04:44:02;0.60;;;0.57;;
22382;SDS011;11359;45.802;13.530;2023-04-21T04:46:29;0.40;;;0.40;;
22382;SDS011;11359;45.802;13.530;2023-04-21T04:48:55;0.52;;;0.50;;
22382;SDS011;11359;45.802;13.530;2023-04-21T04:51:21;0.40;;;0.40;;
22382;SDS011;11359;45.802;13.530;2023-04-21T04:53:47;0.45;;;0.45;;
22382;SDS011;11359;45.802;13.530;2023-04-21T04:56:13;0.65;;;0.60;;
22382;SDS011;11359;45.802;13.530;2023-04-21T04:58:39;0.77;;;0.68;;
22382;SDS011;11359;45.802;13.530;2023-04-21T05:01:14;0.60;;;0.60;;
22382;SDS011;11359;45.802;13.530;2023-04-21T05:03:41;0.80;;;0.60;;
22382;SDS011;11359;45.802;13.530;2023-04-21T05:06:07;0.52;;;0.52;;
22382;SDS011;11359;45.802;13.530;2023-04-21T05:08:34;0.50;;;0.50;;
22382;SDS011;11359;45.802;13.530;2023-04-21T05:11:00;0.63;;;0.52;;
22382;SDS011;11359;45.802;13.530;2023-04-21T05:13:26;0.57;;;0.57;;
22382;SDS011;11359;45.802;13.530;2023-04-21T05:15:58;0.55;;;0.55;;
22382;SDS011;11359;45.802;13.530;2023-04-21T05:18:27;0.50;;;0.50;;
22382;SDS011;11359;45.802;13.530;2023-04-21T05:20:53;0.60;;;0.55;;
22382;SDS011;11359;45.802;13.530;2023-04-21T05:23:18;0.77;;;0.60;;
22382;SDS011;11359;45.802;13.530;2023-04-21T05:25:45;0.60;;;0.57;;
22382;SDS011;11359;45.802;13.530;2023-04-21T05:28:10;0.80;;;0.60;;
22382;SDS011;11359;45.802;13.530;2023-04-21T05:30:36;0.80;;;0.65;;
22382;SDS011;11359;45.802;13.530;2023-04-21T05:33:02;0.93;;;0.80;;
22382;SDS011;11359;45.802;13.530;2023-04-21T05:35:31;1.00;;;0.70;;
22382;SDS011;11359;45.802;13.530;2023-04-21T05:37:57;0.70;;;0.70;;
22382;SDS011;11359;45.802;13.530;2023-04-21T05:40:24;1.00;;;0.70;;
22382;SDS011;11359;45.802;13.530;2023-04-21T05:42:50;0.90;;;0.70;;
22382;SDS011;11359;45.802;13.530;2023-04-21T05:45:16;0.82;;;0.65;;
22382;SDS011;11359;45.802;13.530;2023-04-21T05:47:42;1.00;;;0.77;;
22382;SDS011;11359;45.802;13.530;2023-04-21T05:50:07;0.75;;;0.68;;
22382;SDS011;11359;45.802;13.530;2023-04-21T05:52:33;0.70;;;0.68;;
22382;SDS011;11359;45.802;13.530;2023-04-21T05:55:01;0.50;;;0.50;;
22382;SDS011;11359;45.802;13.530;2023-04-21T05:57:27;1.00;;;0.70;;
22382;SDS011;11359;45.802;13.530;2023-04-21T05:59:53;0.82;;;0.68;;
22382;SDS011;11359;45.802;13.530;2023-04-21T06:02:20;0.98;;;0.68;;
22382;SDS011;11359;45.802;13.530;2023-04-21T06:04:46;1.02;;;0.60;;
22382;SDS011;11359;45.802;13.530;2023-04-21T06:07:12;0.80;;;0.70;;
22382;SDS011;11359;45.802;13.530;2023-04-21T06:09:41;1.00;;;0.90;;
22382;SDS011;11359;45.802;13.530;2023-04-21T06:12:07;0.80;;;0.70;;
22382;SDS011;11359;45.802;13.530;2023-04-21T06:14:33;0.80;;;0.70;;
22382;SDS011;11359;45.802;13.530;2023-04-21T06:16:58;0.70;;;0.63;;
22382;SDS011;11359;45.802;13.530;2023-04-21T06:19:24;1.13;;;0.60;;
22382;SDS011;11359;45.802;13.530;2023-04-21T06:21:50;0.60;;;0.60;;
22382;SDS011;11359;45.802;13.530;2023-04-21T06:24:16;0.60;;;0.50;;
22382;SDS011;11359;45.802;13.530;2023-04-21T06:26:48;0.65;;;0.60;;
22382;SDS011;11359;45.802;13.530;2023-04-21T06:29:16;0.47;;;0.47;;
22382;SDS011;11359;45.802;13.530;2023-04-21T06:31:43;0.60;;;0.60;;
22382;SDS011;11359;45.802;13.530;2023-04-21T06:34:09;0.60;;;0.50;;
22382;SDS011;11359;45.802;13.530;2023-04-21T06:36:34;0.73;;;0.60;;
22382;SDS011;11359;45.802;13.530;2023-04-21T06:39:00;0.60;;;0.60;;
22382;SDS011;11359;45.802;13.530;2023-04-21T06:41:26;0.70;;;0.70;;
22382;SDS011;11359;45.802;13.530;2023-04-21T06:43:52;0.50;;;0.50;;
22382;SDS011;11359;45.802;13.530;2023-04-21T06:46:18;0.50;;;0.50;;
22382;SDS011;11359;45.802;13.530;2023-04-21T06:48:44;0.50;;;0.50;;
22382;SDS011;11359;45.802;13.530;2023-04-21T06:51:10;0.60;;;0.50;;
22382;SDS011;11359;45.802;13.530;2023-04-21T06:53:35;0.40;;;0.40;;
22382;SDS011;11359;45.802;13.530;2023-04-21T06:56:02;0.50;;;0.50;;
22382;SDS011;11359;45.802;13.530;2023-04-21T06:58:28;0.70;;;0.70;;
22382;SDS011;11359;45.802;13.530;2023-04-21T07:00:54;0.40;;;0.40;;
22382;SDS011;11359;45.802;13.530;2023-04-21T07:03:19;0.80;;;0.60;;
22382;SDS011;11359;45.802;13.530;2023-04-21T07:05:45;0.82;;;0.63;;
22382;SDS011;11359;45.802;13.530;2023-04-21T07:08:11;0.50;;;0.50;;
22382;SDS011;11359;45.802;13.530;2023-04-21T07:10:37;0.40;;;0.40;;
22382;SDS011;11359;45.802;13.530;2023-04-21T07:13:03;0.50;;;0.50;;
22382;SDS011;11359;45.802;13.530;2023-04-21T07:15:28;0.55;;;0.55;;
22382;SDS011;11359;45.802;13.530;2023-04-21T07:17:54;0.40;;;0.40;;
22382;SDS011;11359;45.802;13.530;2023-04-21T07:20:22;0.50;;;0.50;;
22382;SDS011;11359;45.802;13.530;2023-04-21T07:22:48;0.50;;;0.50;;
22382;SDS011;11359;45.802;13.530;2023-04-21T07:25:14;0.50;;;0.50;;
22382;SDS011;11359;45.802;13.530;2023-04-21T07:27:40;0.60;;;0.47;;
22382;SDS011;11359;45.802;13.530;2023-04-21T07:30:05;0.40;;;0.40;;
22382;SDS011;11359;45.802;13.530;2023-04-21T07:32:32;0.45;;;0.45;;
22382;SDS011;11359;45.802;13.530;2023-04-21T07:34:58;0.30;;;0.30;;
22382;SDS011;11359;45.802;13.530;2023-04-21T07:37:25;0.35;;;0.35;;
22382;SDS011;11359;45.802;13.530;2023-04-21T07:39:51;0.40;;;0.40;;
22382;SDS011;11359;45.802;13.530;2023-04-21T07:42:17;0.32;;;0.30;;
22382;SDS011;11359;45.802;13.530;2023-04-21T07:44:45;0.30;;;0.30;;
22382;SDS011;11359;45.802;13.530;2023-04-21T07:47:12;0.30;;;0.30;;
22382;SDS011;11359;45.802;13.530;2023-04-21T07:49:38;0.30;;;0.30;;
22382;SDS011;11359;45.802;13.530;2023-04-21T07:52:04;0.50;;;0.50;;
22382;SDS011;11359;45.802;13.530;2023-04-21T07:54:30;0.60;;;0.40;;
22382;SDS011;11359;45.802;13.530;2023-04-21T07:56:55;0.45;;;0.45;;
22382;SDS011;11359;45.802;13.530;2023-04-21T07:59:21;0.40;;;0.40;;
22382;SDS011;11359;45.802;13.530;2023-04-21T08:01:47;0.40;;;0.40;;
22382;SDS011;11359;45.802;13.530;2023-04-21T08:04:15;0.30;;;0.30;;
22382;SDS011;11359;45.802;13.530;2023-04-21T08:06:41;0.30;;;0.30;;
22382;SDS011;11359;45.802;13.530;2023-04-21T08:09:07;0.43;;;0.40;;
22382;SDS011;11359;45.802;13.530;2023-04-21T08:11:32;0.30;;;0.30;;
22382;SDS011;11359;45.802;13.530;2023-04-21T08:13:58;0.30;;;0.30;;
22382;SDS011;11359;45.802;13.530;2023-04-21T08:16:24;0.40;;;0.40;;
22382;SDS011;11359;45.802;13.530;2023-04-21T08:18:49;0.25;;;0.25;;
22382;SDS011;11359;45.802;13.530;2023-04-21T08:21:15;0.30;;;0.30;;
22382;SDS011;11359;45.802;13.530;2023-04-21T08:23:41;0.30;;;0.30;;
22382;SDS011;11359;45.802;13.530;2023-04-21T08:26:07;0.40;;;0.40;;
22382;SDS011;11359;45.802;13.530;2023-04-21T08:28:34;0.40;;;0.40;;
22382;SDS011;11359;45.802;13.530;2023-04-21T08:31:01;0.40;;;0.40;;
22382;SDS011;11359;45.802;13.530;2023-04-21T08:33:28;0.30;;;0.30;;
22382;SDS011;11359;45.802;13.530;2023-04-21T08:35:54;0.38;;;0.38;;
22382;SDS011;11359;45.802;13.530;2023-04-21T08:38:19;0.40;;;0.40;;
22382;SDS011;11359;45.802;13.530;2023-04-21T08:40:45;0.40;;;0.40;;
22382;SDS011;11359;45.802;13.530;2023-04-21T08:43:12;0.40;;;0.40;;
22382;SDS011;11359;45.802;13.530;2023-04-21T08:45:38;0.40;;;0.40;;
22382;SDS011;11359;45.802;13.530;2023-04-21T08:48:05;0.55;;;0.40;;
22382;SDS011;11359;45.802;13.530;2023-04-21T08:50:31;0.40;;;0.40;;
22382;SDS011;11359;45.802;13.530;2023-04-21T08:52:58;0.60;;;0.60;;
22382;SDS011;11359;45.802;13.530;2023-04-21T08:55:30;0.68;;;0.60;;
22382;SDS011;11359;45.802;13.530;2023-04-21T08:57:57;0.73;;;0.65;;
22382;SDS011;11359;45.802;13.530;2023-04-21T09:00:23;0.80;;;0.60;;
22382;SDS011;11359;45.802;13.530;2023-04-21T09:02:56;0.60;;;0.60;;
22382;SDS011;11359;45.802;13.530;2023-04-21T09:05:26;0.45;;;0.45;;
22382;SDS011;11359;45.802;13.530;2023-04-21T09:08:05;0.50;;;0.50;;
22382;SDS011;11359;45.802;13.530;2023-04-21T09:10:33;0.63;;;0.40;;
22382;SDS011;11359;45.802;13.530;2023-04-21T09:13:08;0.40;;;0.40;;
22382;SDS011;11359;45.802;13.530;2023-04-21T09:15:38;0.43;;;0.40;;
22382;SDS011;11359;45.802;13.530;2023-04-21T09:20:41;0.40;;;0.40;;
22382;SDS011;11359;45.802;13.530;2023-04-21T09:23:08;0.60;;;0.50;;
22382;SDS011;11359;45.802;13.530;2023-04-21T09:25:37;0.63;;;0.50;;
22382;SDS011;11359;45.802;13.530;2023-04-21T09:28:07;0.50;;;0.50;;
22382;SDS011;11359;45.802;13.530;2023-04-21T09:30:34;0.50;;;0.50;;
22382;SDS011;11359;45.802;13.530;2023-04-21T09:33:01;0.70;;;0.70;;
22382;SDS011;11359;45.802;13.530;2023-04-21T09:35:27;0.50;;;0.50;;
22382;SDS011;11359;45.802;13.530;2023-04-21T09:37:53;0.60;;;0.60;;
22382;SDS011;11359;45.802;13.530;2023-04-21T09:40:19;0.50;;;0.50;;
22382;SDS011;11359;45.802;13.530;2023-04-21T09:42:45;0.60;;;0.60;;
22382;SDS011;11359;45.802;13.530;2023-04-21T09:45:11;0.88;;;0.60;;
22382;SDS011;11359;45.802;13.530;2023-04-21T09:47:39;0.50;;;0.50;;
22382;SDS011;11359;45.802;13.530;2023-04-21T09:50:06;0.50;;;0.50;;
22382;SDS011;11359;45.802;13.530;2023-04-21T09:52:33;0.60;;;0.60;;
22382;SDS011;11359;45.802;13.530;2023-04-21T09:55:02;0.43;;;0.43;;
22382;SDS011;11359;45.802;13.530;2023-04-21T09:57:31;0.45;;;0.45;;
22382;SDS011;11359;45.802;13.530;2023-04-21T10:00:00;0.50;;;0.50;;
22382;SDS011;11359;45.802;13.530;2023-04-21T10:02:30;0.60;;;0.50;;
22382;SDS011;11359;45.802;13.530;2023-04-21T10:04:58;0.60;;;0.52;;
22382;SDS011;11359;45.802;13.530;2023-04-21T10:07:24;0.50;;;0.50;;
22382;SDS011;11359;45.802;13.530;2023-04-21T10:09:53;0.50;;;0.50;;
22382;SDS011;11359;45.802;13.530;2023-04-21T10:12:22;0.50;;;0.50;;
22382;SDS011;11359;45.802;13.530;2023-04-21T10:14:50;0.40;;;0.40;;
22382;SDS011;11359;45.802;13.530;2023-04-21T10:17:17;0.50;;;0.50;;
22382;SDS011;11359;45.802;13.530;2023-04-21T10:19:47;0.47;;;0.47;;
22382;SDS011;11359;45.802;13.530;2023-04-21T10:22:14;0.65;;;0.52;;
22382;SDS011;11359;45.802;13.530;2023-04-21T10:24:54;1.50;;;0.40;;
22382;SDS011;11359;45.802;13.530;2023-04-21T10:29:57;0.50;;;0.45;;
22382;SDS011;11359;45.802;13.530;2023-04-21T10:32:41;0.63;;;0.50;;
22382;SDS011;11359;45.802;13.530;2023-04-21T10:35:13;0.40;;;0.40;;
22382;SDS011;11359;45.802;13.530;2023-04-21T10:37:41;0.40;;;0.40;;
22382;SDS011;11359;45.802;13.530;2023-04-21T10:40:31;0.40;;;0.40;;
22382;SDS011;11359;45.802;13.530;2023-04-21T10:43:01;0.68;;;0.60;;
22382;SDS011;11359;45.802;13.530;2023-04-21T10:45:28;0.40;;;0.40;;
22382;SDS011;11359;45.802;13.530;2023-04-21T10:47:55;0.70;;;0.60;;
22382;SDS011;11359;45.802;13.530;2023-04-21T10:50:24;0.57;;;0.45;;
22382;SDS011;11359;45.802;13.530;2023-04-21T10:55:27;0.60;;;0.52;;
22382;SDS011;11359;45.802;13.530;2023-04-21T10:57:54;0.57;;;0.50;;
22382;SDS011;11359;45.802;13.530;2023-04-21T11:00:22;0.50;;;0.40;;
22382;SDS011;11359;45.802;13.530;2023-04-21T11:02:55;0.50;;;0.40;;
22382;SDS011;11359;45.802;13.530;2023-04-21T11:05:28;0.50;;;0.50;;
22382;SDS011;11359;45.802;13.530;2023-04-21T11:08:02;0.30;;;0.30;;
22382;SDS011;11359;45.802;13.530;2023-04-21T11:10:29;0.50;;;0.40;;
22382;SDS011;11359;45.802;13.530;2023-04-21T11:13:05;0.40;;;0.40;;
22382;SDS011;11359;45.802;13.530;2023-04-21T11:15:32;0.52;;;0.50;;
22382;SDS011;11359;45.802;13.530;2023-04-21T11:17:58;0.50;;;0.50;;
22382;SDS011;11359;45.802;13.530;2023-04-21T11:20:24;0.32;;;0.32;;
22382;SDS011;11359;45.802;13.530;2023-04-21T11:22:54;0.30;;;0.30;;
22382;SDS011;11359;45.802;13.530;2023-04-21T11:25:20;0.32;;;0.30;;
22382;SDS011;11359;45.802;13.530;2023-04-21T11:27:56;0.40;;;0.40;;
22382;SDS011;11359;45.802;13.530;2023-04-21T11:30:33;0.50;;;0.50;;
22382;SDS011;11359;45.802;13.530;2023-04-21T11:32:59;0.43;;;0.43;;
22382;SDS011;11359;45.802;13.530;2023-04-21T11:35:25;0.55;;;0.50;;
22382;SDS011;11359;45.802;13.530;2023-04-21T11:37:51;0.45;;;0.43;;
22382;SDS011;11359;45.802;13.530;2023-04-21T11:40:20;0.30;;;0.30;;
22382;SDS011;11359;45.802;13.530;2023-04-21T11:42:46;0.32;;;0.32;;
22382;SDS011;11359;45.802;13.530;2023-04-21T11:45:18;0.40;;;0.40;;
22382;SDS011;11359;45.802;13.530;2023-04-21T11:47:44;0.43;;;0.43;;
22382;SDS011;11359;45.802;13.530;2023-04-21T11:50:16;0.50;;;0.50;;
22382;SDS011;11359;45.802;13.530;2023-04-21T11:52:55;0.45;;;0.45;;
22382;SDS011;11359;45.802;13.530;2023-04-21T11:55:21;0.40;;;0.40;;
22382;SDS011;11359;45.802;13.530;2023-04-21T11:57:47;0.30;;;0.30;;
22382;SDS011;11359;45.802;13.530;2023-04-21T12:00:15;0.40;;;0.40;;
22382;SDS011;11359;45.802;13.530;2023-04-21T12:02:41;0.40;;;0.40;;
22382;SDS011;11359;45.802;13.530;2023-04-21T12:05:08;0.40;;;0.40;;
22382;SDS011;11359;45.802;13.530;2023-04-21T12:07:36;0.40;;;0.40;;
22382;SDS011;11359;45.802;13.530;2023-04-21T12:10:09;0.30;;;0.30;;
22382;SDS011;11359;45.802;13.530;2023-04-21T12:12:40;0.30;;;0.30;;
22382;SDS011;11359;45.802;13.530;2023-04-21T12:15:06;0.30;;;0.30;;
22382;SDS011;11359;45.802;13.530;2023-04-21T12:17:42;0.30;;;0.30;;
22382;SDS011;11359;45.802;13.530;2023-04-21T12:20:16;0.35;;;0.35;;
22382;SDS011;11359;45.802;13.530;2023-04-21T12:22:50;0.55;;;0.50;;
22382;SDS011;11359;45.802;13.530;2023-04-21T12:25:16;0.80;;;0.70;;
22382;SDS011;11359;45.802;13.530;2023-04-21T12:30:18;0.70;;;0.60;;
22382;SDS011;11359;45.802;13.530;2023-04-21T12:32:44;0.60;;;0.60;;
22382;SDS011;11359;45.802;13.530;2023-04-21T12:35:12;0.52;;;0.50;;
22382;SDS011;11359;45.802;13.530;2023-04-21T12:37:38;0.65;;;0.60;;
22382;SDS011;11359;45.802;13.530;2023-04-21T12:40:03;0.50;;;0.50;;
22382;SDS011;11359;45.802;13.530;2023-04-21T12:42:31;0.88;;;0.63;;
22382;SDS011;11359;45.802;13.530;2023-04-21T12:44:57;0.82;;;0.82;;
22382;SDS011;11359;45.802;13.530;2023-04-21T12:47:23;0.85;;;0.77;;
22382;SDS011;11359;45.802;13.530;2023-04-21T12:49:49;0.65;;;0.65;;
22382;SDS011;11359;45.802;13.530;2023-04-21T12:52:15;1.10;;;0.90;;
22382;SDS011;11359;45.802;13.530;2023-04-21T12:54:40;0.60;;;0.60;;
22382;SDS011;11359;45.802;13.530;2023-04-21T12:57:08;0.60;;;0.60;;
22382;SDS011;11359;45.802;13.530;2023-04-21T12:59:34;0.45;;;0.45;;
22382;SDS011;11359;45.802;13.530;2023-04-21T13:01:59;0.68;;;0.60;;
22382;SDS011;11359;45.802;13.530;2023-04-21T13:04:25;0.52;;;0.52;;
22382;SDS011;11359;45.802;13.530;2023-04-21T13:06:51;0.50;;;0.50;;
22382;SDS011;11359;45.802;13.530;2023-04-21T13:09:16;0.50;;;0.50;;
22382;SDS011;11359;45.802;13.530;2023-04-21T13:11:42;0.50;;;0.50;;
22382;SDS011;11359;45.802;13.530;2023-04-21T13:14:08;0.43;;;0.40;;
22382;SDS011;11359;45.802;13.530;2023-04-21T13:16:34;0.57;;;0.57;;
22382;SDS011;11359;45.802;13.530;2023-04-21T13:19:00;0.60;;;0.57;;
22382;SDS011;11359;45.802;13.530;2023-04-21T13:21:26;0.50;;;0.50;;
22382;SDS011;11359;45.802;13.530;2023-04-21T13:23:51;0.65;;;0.55;;
22382;SDS011;11359;45.802;13.530;2023-04-21T13:26:17;0.77;;;0.50;;
22382;SDS011;11359;45.802;13.530;2023-04-21T13:28:43;0.55;;;0.52;;
22382;SDS011;11359;45.802;13.530;2023-04-21T13:31:10;0.95;;;0.80;;
22382;SDS011;11359;45.802;13.530;2023-04-21T13:33:36;0.50;;;0.50;;
22382;SDS011;11359;45.802;13.530;2023-04-21T13:36:01;0.50;;;0.50;;
22382;SDS011;11359;45.802;13.530;2023-04-21T13:38:28;0.68;;;0.68;;
22382;SDS011;11359;45.802;13.530;2023-04-21T13:40:54;0.88;;;0.70;;
22382;SDS011;11359;45.802;13.530;2023-04-21T13:43:20;0.70;;;0.70;;
22382;SDS011;11359;45.802;13.530;2023-04-21T13:45:46;0.85;;;0.80;;
22382;SDS011;11359;45.802;13.530;2023-04-21T13:48:14;0.70;;;0.70;;
22382;SDS011;11359;45.802;13.530;2023-04-21T13:50:40;0.70;;;0.70;;
22382;SDS011;11359;45.802;13.530;2023-04-21T13:53:06;0.60;;;0.60;;
22382;SDS011;11359;45.802;13.530;2023-04-21T13:55:32;0.60;;;0.60;;
22382;SDS011;11359;45.802;13.530;2023-04-21T13:57:58;0.57;;;0.40;;
22382;SDS011;11359;45.802;13.530;2023-04-21T14:00:27;0.68;;;0.50;;
22382;SDS011;11359;45.802;13.530;2023-04-21T14:02:53;0.50;;;0.50;;
22382;SDS011;11359;45.802;13.530;2023-04-21T14:05:19;0.50;;;0.50;;
22382;SDS011;11359;45.802;13.530;2023-04-21T14:07:45;0.50;;;0.50;;
22382;SDS011;11359;45.802;13.530;2023-04-21T14:10:12;0.63;;;0.55;;
22382;SDS011;11359;45.802;13.530;2023-04-21T14:12:37;0.40;;;0.40;;
22382;SDS011;11359;45.802;13.530;2023-04-21T14:15:06;0.50;;;0.50;;
22382;SDS011;11359;45.802;13.530;2023-04-21T14:17:32;0.50;;;0.50;;
22382;SDS011;11359;45.802;13.530;2023-04-21T14:19:59;0.50;;;0.50;;
22382;SDS011;11359;45.802;13.530;2023-04-21T14:22:24;0.40;;;0.40;;
22382;SDS011;11359;45.802;13.530;2023-04-21T14:24:53;0.40;;;0.40;;
22382;SDS011;11359;45.802;13.530;2023-04-21T14:27:19;0.30;;;0.30;;
22382;SDS011;11359;45.802;13.530;2023-04-21T14:29:45;0.30;;;0.30;;
22382;SDS011;11359;45.802;13.530;2023-04-21T14:32:11;0.40;;;0.40;;
22382;SDS011;11359;45.802;13.530;2023-04-21T14:34:36;0.30;;;0.30;;
22382;SDS011;11359;45.802;13.530;2023-04-21T14:37:02;0.30;;;0.30;;
22382;SDS011;11359;45.802;13.530;2023-04-21T14:39:28;0.30;;;0.30;;
22382;SDS011;11359;45.802;13.530;2023-04-21T14:41:54;0.30;;;0.30;;